sensor_id;sensor_type;location;lat;lon;timestamp;P1;durP1;ratioP1;P2;durP2;ratioP2
64932;SDS011;51446;53.850;10.662;2024-02-26T00:01:32;9.93;;;7.70;;
64932;SDS011;51446;53.850;10.662;2024-02-26T00:03:59;11.10;;;8.27;;
64932;SDS011;51446;53.850;10.662;2024-02-26T00:06:24;9.75;;;7.63;;
64932;SDS011;51446;53.850;10.662;2024-02-26T00:08:51;9.80;;;7.55;;
64932;SDS011;51446;53.850;10.662;2024-02-26T00:11:16;9.30;;;7.30;;
64932;SDS011;51446;53.850;10.662;2024-02-26T00:13:41;8.47;;;7.30;;
64932;SDS011;51446;53.850;10.662;2024-02-26T00:16:06;8.00;;;7.00;;
64932;SDS011;51446;53.850;10.662;2024-02-26T00:18:32;10.90;;;8.17;;
64932;SDS011;51446;53.850;10.662;2024-02-26T00:20:58;10.97;;;7.90;;
64932;SDS011;51446;53.850;10.662;2024-02-26T00:23:23;10.07;;;8.18;;
64932;SDS011;51446;53.850;10.662;2024-02-26T00:25:49;11.33;;;8.20;;
64932;SDS011;51446;53.850;10.662;2024-02-26T00:28:14;9.50;;;8.10;;
64932;SDS011;51446;53.850;10.662;2024-02-26T00:30:39;10.10;;;8.00;;
64932;SDS011;51446;53.850;10.662;2024-02-26T00:33:04;11.23;;;7.90;;
64932;SDS011;51446;53.850;10.662;2024-02-26T00:35:30;8.63;;;7.30;;
64932;SDS011;51446;53.850;10.662;2024-02-26T00:37:55;9.73;;;6.90;;
64932;SDS011;51446;53.850;10.662;2024-02-26T00:40:20;10.43;;;7.67;;
64932;SDS011;51446;53.850;10.662;2024-02-26T00:42:45;10.27;;;7.93;;
64932;SDS011;51446;53.850;10.662;2024-02-26T00:45:11;9.97;;;8.03;;
64932;SDS011;51446;53.850;10.662;2024-02-26T00:47:37;10.98;;;8.57;;
64932;SDS011;51446;53.850;10.662;2024-02-26T00:50:03;11.98;;;8.50;;
64932;SDS011;51446;53.850;10.662;2024-02-26T00:52:28;10.68;;;8.07;;
64932;SDS011;51446;53.850;10.662;2024-02-26T00:54:54;10.67;;;8.47;;
64932;SDS011;51446;53.850;10.662;2024-02-26T00:57:19;10.83;;;9.10;;
64932;SDS011;51446;53.850;10.662;2024-02-26T00:59:44;11.53;;;8.40;;
64932;SDS011;51446;53.850;10.662;2024-02-26T01:02:09;11.40;;;8.60;;
64932;SDS011;51446;53.850;10.662;2024-02-26T01:04:35;10.07;;;7.33;;
64932;SDS011;51446;53.850;10.662;2024-02-26T01:07:00;10.87;;;7.87;;
64932;SDS011;51446;53.850;10.662;2024-02-26T01:09:26;11.13;;;7.97;;
64932;SDS011;51446;53.850;10.662;2024-02-26T01:11:52;9.82;;;8.25;;
64932;SDS011;51446;53.850;10.662;2024-02-26T01:14:17;12.50;;;8.77;;
64932;SDS011;51446;53.850;10.662;2024-02-26T01:16:42;10.57;;;8.90;;
64932;SDS011;51446;53.850;10.662;2024-02-26T01:19:07;12.57;;;9.40;;
64932;SDS011;51446;53.850;10.662;2024-02-26T01:21:33;11.00;;;8.93;;
64932;SDS011;51446;53.850;10.662;2024-02-26T01:23:58;9.83;;;8.40;;
64932;SDS011;51446;53.850;10.662;2024-02-26T01:26:23;11.63;;;8.57;;
64932;SDS011;51446;53.850;10.662;2024-02-26T01:28:48;11.23;;;8.50;;
64932;SDS011;51446;53.850;10.662;2024-02-26T01:31:14;13.47;;;9.63;;
64932;SDS011;51446;53.850;10.662;2024-02-26T01:33:39;12.33;;;8.90;;
64932;SDS011;51446;53.850;10.662;2024-02-26T01:36:05;13.43;;;9.43;;
64932;SDS011;51446;53.850;10.662;2024-02-26T01:38:30;11.90;;;9.20;;
64932;SDS011;51446;53.850;10.662;2024-02-26T01:40:55;11.00;;;8.00;;
64932;SDS011;51446;53.850;10.662;2024-02-26T01:43:21;10.67;;;8.43;;
64932;SDS011;51446;53.850;10.662;2024-02-26T01:45:46;12.90;;;8.87;;
64932;SDS011;51446;53.850;10.662;2024-02-26T01:48:13;13.60;;;8.97;;
64932;SDS011;51446;53.850;10.662;2024-02-26T01:50:38;11.68;;;8.20;;
64932;SDS011;51446;53.850;10.662;2024-02-26T01:53:05;11.27;;;8.90;;
64932;SDS011;51446;53.850;10.662;2024-02-26T01:55:32;10.98;;;7.78;;
64932;SDS011;51446;53.850;10.662;2024-02-26T01:57:57;10.57;;;8.77;;
64932;SDS011;51446;53.850;10.662;2024-02-26T02:00:24;14.75;;;10.05;;
64932;SDS011;51446;53.850;10.662;2024-02-26T02:02:49;12.73;;;9.57;;
64932;SDS011;51446;53.850;10.662;2024-02-26T02:05:17;12.80;;;9.30;;
64932;SDS011;51446;53.850;10.662;2024-02-26T02:07:45;13.20;;;8.68;;
64932;SDS011;51446;53.850;10.662;2024-02-26T02:10:11;14.70;;;9.33;;
64932;SDS011;51446;53.850;10.662;2024-02-26T02:12:37;15.50;;;10.45;;
64932;SDS011;51446;53.850;10.662;2024-02-26T02:15:05;15.50;;;9.75;;
64932;SDS011;51446;53.850;10.662;2024-02-26T02:17:30;13.32;;;8.48;;
64932;SDS011;51446;53.850;10.662;2024-02-26T02:19:56;11.93;;;8.80;;
64932;SDS011;51446;53.850;10.662;2024-02-26T02:22:21;13.50;;;9.10;;
64932;SDS011;51446;53.850;10.662;2024-02-26T02:24:47;13.90;;;9.65;;
64932;SDS011;51446;53.850;10.662;2024-02-26T02:27:13;16.10;;;11.63;;
64932;SDS011;51446;53.850;10.662;2024-02-26T02:29:38;17.03;;;11.73;;
64932;SDS011;51446;53.850;10.662;2024-02-26T02:32:04;15.70;;;10.77;;
64932;SDS011;51446;53.850;10.662;2024-02-26T02:34:30;15.20;;;9.40;;
64932;SDS011;51446;53.850;10.662;2024-02-26T02:36:56;14.13;;;9.88;;
64932;SDS011;51446;53.850;10.662;2024-02-26T02:39:22;13.80;;;10.67;;
64932;SDS011;51446;53.850;10.662;2024-02-26T02:41:47;14.00;;;10.57;;
64932;SDS011;51446;53.850;10.662;2024-02-26T02:44:12;12.97;;;9.63;;
64932;SDS011;51446;53.850;10.662;2024-02-26T02:46:38;15.13;;;10.20;;
64932;SDS011;51446;53.850;10.662;2024-02-26T02:49:03;18.00;;;10.23;;
64932;SDS011;51446;53.850;10.662;2024-02-26T02:51:29;15.33;;;9.70;;
64932;SDS011;51446;53.850;10.662;2024-02-26T02:53:54;18.30;;;9.67;;
64932;SDS011;51446;53.850;10.662;2024-02-26T02:56:19;11.23;;;9.57;;
64932;SDS011;51446;53.850;10.662;2024-02-26T02:58:44;13.83;;;8.70;;
64932;SDS011;51446;53.850;10.662;2024-02-26T03:01:10;15.10;;;9.93;;
64932;SDS011;51446;53.850;10.662;2024-02-26T03:03:35;13.43;;;9.57;;
64932;SDS011;51446;53.850;10.662;2024-02-26T03:06:01;20.00;;;8.75;;
64932;SDS011;51446;53.850;10.662;2024-02-26T03:08:27;13.60;;;9.80;;
64932;SDS011;51446;53.850;10.662;2024-02-26T03:10:53;16.40;;;8.60;;
64932;SDS011;51446;53.850;10.662;2024-02-26T03:13:18;16.07;;;9.97;;
64932;SDS011;51446;53.850;10.662;2024-02-26T03:15:43;15.83;;;8.97;;
64932;SDS011;51446;53.850;10.662;2024-02-26T03:18:08;12.53;;;8.90;;
64932;SDS011;51446;53.850;10.662;2024-02-26T03:20:34;12.43;;;8.53;;
64932;SDS011;51446;53.850;10.662;2024-02-26T03:23:02;17.00;;;8.83;;
64932;SDS011;51446;53.850;10.662;2024-02-26T03:25:27;16.58;;;9.35;;
64932;SDS011;51446;53.850;10.662;2024-02-26T03:27:52;24.23;;;8.60;;
64932;SDS011;51446;53.850;10.662;2024-02-26T03:30:17;16.10;;;8.60;;
64932;SDS011;51446;53.850;10.662;2024-02-26T03:32:43;12.93;;;8.93;;
64932;SDS011;51446;53.850;10.662;2024-02-26T03:35:08;14.13;;;7.83;;
64932;SDS011;51446;53.850;10.662;2024-02-26T03:37:34;14.33;;;7.90;;
64932;SDS011;51446;53.850;10.662;2024-02-26T03:39:59;10.37;;;8.30;;
64932;SDS011;51446;53.850;10.662;2024-02-26T03:42:26;13.30;;;7.80;;
64932;SDS011;51446;53.850;10.662;2024-02-26T03:44:51;16.93;;;8.37;;
64932;SDS011;51446;53.850;10.662;2024-02-26T03:47:16;22.30;;;11.63;;
64932;SDS011;51446;53.850;10.662;2024-02-26T03:49:41;14.37;;;8.63;;
64932;SDS011;51446;53.850;10.662;2024-02-26T03:52:07;11.33;;;8.90;;
64932;SDS011;51446;53.850;10.662;2024-02-26T03:54:32;16.03;;;8.77;;
64932;SDS011;51446;53.850;10.662;2024-02-26T03:56:57;17.23;;;9.13;;
64932;SDS011;51446;53.850;10.662;2024-02-26T03:59:22;13.90;;;8.97;;
64932;SDS011;51446;53.850;10.662;2024-02-26T04:01:49;13.32;;;8.27;;
64932;SDS011;51446;53.850;10.662;2024-02-26T04:04:15;13.87;;;8.40;;
64932;SDS011;51446;53.850;10.662;2024-02-26T04:06:43;16.23;;;8.40;;
64932;SDS011;51446;53.850;10.662;2024-02-26T04:09:09;12.18;;;8.68;;
64932;SDS011;51446;53.850;10.662;2024-02-26T04:11:35;14.40;;;8.13;;
64932;SDS011;51446;53.850;10.662;2024-02-26T04:14:00;10.87;;;7.57;;
64932;SDS011;51446;53.850;10.662;2024-02-26T04:16:25;18.77;;;9.70;;
64932;SDS011;51446;53.850;10.662;2024-02-26T04:18:51;12.03;;;8.97;;
64932;SDS011;51446;53.850;10.662;2024-02-26T04:21:18;22.38;;;8.50;;
64932;SDS011;51446;53.850;10.662;2024-02-26T04:23:43;15.40;;;8.23;;
64932;SDS011;51446;53.850;10.662;2024-02-26T04:26:08;20.87;;;13.10;;
64932;SDS011;51446;53.850;10.662;2024-02-26T04:28:34;47.77;;;26.17;;
64932;SDS011;51446;53.850;10.662;2024-02-26T04:30:59;63.10;;;32.27;;
64932;SDS011;51446;53.850;10.662;2024-02-26T04:33:24;58.40;;;31.13;;
64932;SDS011;51446;53.850;10.662;2024-02-26T04:35:49;28.97;;;17.70;;
64932;SDS011;51446;53.850;10.662;2024-02-26T04:38:15;19.60;;;12.80;;
64932;SDS011;51446;53.850;10.662;2024-02-26T04:40:40;49.77;;;30.17;;
64932;SDS011;51446;53.850;10.662;2024-02-26T04:43:05;114.37;;;68.03;;
64932;SDS011;51446;53.850;10.662;2024-02-26T04:45:30;109.13;;;61.77;;
64932;SDS011;51446;53.850;10.662;2024-02-26T04:47:56;66.97;;;39.70;;
64932;SDS011;51446;53.850;10.662;2024-02-26T04:50:21;33.00;;;20.07;;
64932;SDS011;51446;53.850;10.662;2024-02-26T04:52:46;26.83;;;16.60;;
64932;SDS011;51446;53.850;10.662;2024-02-26T04:55:11;26.50;;;16.07;;
64932;SDS011;51446;53.850;10.662;2024-02-26T04:57:38;24.92;;;15.13;;
64932;SDS011;51446;53.850;10.662;2024-02-26T05:00:04;22.43;;;13.10;;
64932;SDS011;51446;53.850;10.662;2024-02-26T05:02:30;16.30;;;11.70;;
64932;SDS011;51446;53.850;10.662;2024-02-26T05:04:57;17.50;;;11.90;;
64932;SDS011;51446;53.850;10.662;2024-02-26T05:07:22;19.37;;;12.50;;
64932;SDS011;51446;53.850;10.662;2024-02-26T05:09:47;15.27;;;11.67;;
64932;SDS011;51446;53.850;10.662;2024-02-26T05:12:14;17.20;;;10.90;;
64932;SDS011;51446;53.850;10.662;2024-02-26T05:14:40;16.90;;;11.30;;
64932;SDS011;51446;53.850;10.662;2024-02-26T05:17:05;18.65;;;10.60;;
64932;SDS011;51446;53.850;10.662;2024-02-26T05:19:30;18.13;;;10.18;;
64932;SDS011;51446;53.850;10.662;2024-02-26T05:21:56;22.50;;;12.33;;
64932;SDS011;51446;53.850;10.662;2024-02-26T05:24:22;24.87;;;13.23;;
64932;SDS011;51446;53.850;10.662;2024-02-26T05:26:47;21.90;;;11.50;;
64932;SDS011;51446;53.850;10.662;2024-02-26T05:29:13;22.30;;;11.37;;
64932;SDS011;51446;53.850;10.662;2024-02-26T05:31:38;25.90;;;10.63;;
64932;SDS011;51446;53.850;10.662;2024-02-26T05:34:03;14.60;;;10.50;;
64932;SDS011;51446;53.850;10.662;2024-02-26T05:36:28;14.47;;;9.70;;
64932;SDS011;51446;53.850;10.662;2024-02-26T05:38:58;19.45;;;9.10;;
64932;SDS011;51446;53.850;10.662;2024-02-26T05:41:23;17.10;;;10.60;;
64932;SDS011;51446;53.850;10.662;2024-02-26T05:43:51;20.50;;;9.50;;
64932;SDS011;51446;53.850;10.662;2024-02-26T05:46:17;13.88;;;9.38;;
64932;SDS011;51446;53.850;10.662;2024-02-26T05:48:43;15.25;;;9.27;;
64932;SDS011;51446;53.850;10.662;2024-02-26T05:51:09;14.30;;;10.10;;
64932;SDS011;51446;53.850;10.662;2024-02-26T05:53:34;15.30;;;10.20;;
64932;SDS011;51446;53.850;10.662;2024-02-26T05:55:59;15.90;;;9.40;;
64932;SDS011;51446;53.850;10.662;2024-02-26T05:58:25;21.00;;;10.43;;
64932;SDS011;51446;53.850;10.662;2024-02-26T06:00:50;17.60;;;10.47;;
64932;SDS011;51446;53.850;10.662;2024-02-26T06:03:15;17.23;;;10.23;;
64932;SDS011;51446;53.850;10.662;2024-02-26T06:05:40;19.67;;;10.97;;
64932;SDS011;51446;53.850;10.662;2024-02-26T06:08:06;21.25;;;10.82;;
64932;SDS011;51446;53.850;10.662;2024-02-26T06:10:32;16.00;;;10.30;;
64932;SDS011;51446;53.850;10.662;2024-02-26T06:12:57;18.00;;;10.67;;
64932;SDS011;51446;53.850;10.662;2024-02-26T06:15:23;30.87;;;11.37;;
64932;SDS011;51446;53.850;10.662;2024-02-26T06:17:48;18.73;;;11.57;;
64932;SDS011;51446;53.850;10.662;2024-02-26T06:20:13;26.13;;;11.27;;
64932;SDS011;51446;53.850;10.662;2024-02-26T06:22:41;29.47;;;11.83;;
64932;SDS011;51446;53.850;10.662;2024-02-26T06:25:07;24.08;;;11.05;;
64932;SDS011;51446;53.850;10.662;2024-02-26T06:27:32;39.90;;;12.20;;
64932;SDS011;51446;53.850;10.662;2024-02-26T06:29:58;49.40;;;11.60;;
64932;SDS011;51446;53.850;10.662;2024-02-26T06:32:23;47.13;;;11.90;;
64932;SDS011;51446;53.850;10.662;2024-02-26T06:34:48;34.87;;;12.77;;
64932;SDS011;51446;53.850;10.662;2024-02-26T06:37:14;29.03;;;11.27;;
64932;SDS011;51446;53.850;10.662;2024-02-26T06:39:39;38.43;;;11.97;;
64932;SDS011;51446;53.850;10.662;2024-02-26T06:42:06;31.73;;;12.57;;
64932;SDS011;51446;53.850;10.662;2024-02-26T06:44:31;27.23;;;11.60;;
64932;SDS011;51446;53.850;10.662;2024-02-26T06:47:00;38.15;;;13.02;;
64932;SDS011;51446;53.850;10.662;2024-02-26T06:49:26;28.38;;;11.70;;
64932;SDS011;51446;53.850;10.662;2024-02-26T06:51:51;31.60;;;11.50;;
64932;SDS011;51446;53.850;10.662;2024-02-26T06:54:17;22.83;;;11.60;;
64932;SDS011;51446;53.850;10.662;2024-02-26T06:56:42;27.92;;;12.15;;
64932;SDS011;51446;53.850;10.662;2024-02-26T06:59:07;33.63;;;9.90;;
64932;SDS011;51446;53.850;10.662;2024-02-26T07:01:33;20.93;;;10.30;;
64932;SDS011;51446;53.850;10.662;2024-02-26T07:03:58;77.80;;;10.33;;
64932;SDS011;51446;53.850;10.662;2024-02-26T07:06:23;20.13;;;9.30;;
64932;SDS011;51446;53.850;10.662;2024-02-26T07:08:48;64.87;;;9.13;;
64932;SDS011;51446;53.850;10.662;2024-02-26T07:11:14;20.33;;;8.93;;
64932;SDS011;51446;53.850;10.662;2024-02-26T07:13:39;64.90;;;9.17;;
64932;SDS011;51446;53.850;10.662;2024-02-26T07:16:04;25.90;;;9.10;;
64932;SDS011;51446;53.850;10.662;2024-02-26T07:18:30;25.23;;;9.68;;
64932;SDS011;51446;53.850;10.662;2024-02-26T07:20:55;31.45;;;8.75;;
64932;SDS011;51446;53.850;10.662;2024-02-26T07:23:21;45.88;;;9.25;;
64932;SDS011;51446;53.850;10.662;2024-02-26T07:25:46;31.40;;;8.87;;
64932;SDS011;51446;53.850;10.662;2024-02-26T07:28:14;20.70;;;8.45;;
64932;SDS011;51446;53.850;10.662;2024-02-26T07:30:39;16.70;;;8.57;;
64932;SDS011;51446;53.850;10.662;2024-02-26T07:33:04;22.40;;;9.70;;
64932;SDS011;51446;53.850;10.662;2024-02-26T07:35:30;16.13;;;8.57;;
64932;SDS011;51446;53.850;10.662;2024-02-26T07:37:55;17.23;;;9.40;;
64932;SDS011;51446;53.850;10.662;2024-02-26T07:40:20;25.43;;;10.00;;
64932;SDS011;51446;53.850;10.662;2024-02-26T07:42:46;18.70;;;9.50;;
64932;SDS011;51446;53.850;10.662;2024-02-26T07:45:11;16.47;;;9.43;;
64932;SDS011;51446;53.850;10.662;2024-02-26T07:47:36;19.40;;;9.03;;
64932;SDS011;51446;53.850;10.662;2024-02-26T07:50:05;18.50;;;10.18;;
64932;SDS011;51446;53.850;10.662;2024-02-26T07:52:32;20.73;;;10.13;;
64932;SDS011;51446;53.850;10.662;2024-02-26T07:54:57;20.43;;;9.63;;
64932;SDS011;51446;53.850;10.662;2024-02-26T07:57:23;14.15;;;9.32;;
64932;SDS011;51446;53.850;10.662;2024-02-26T07:59:48;16.55;;;9.13;;
64932;SDS011;51446;53.850;10.662;2024-02-26T08:02:14;13.95;;;9.05;;
64932;SDS011;51446;53.850;10.662;2024-02-26T08:04:40;18.83;;;10.57;;
64932;SDS011;51446;53.850;10.662;2024-02-26T08:07:05;19.43;;;10.67;;
64932;SDS011;51446;53.850;10.662;2024-02-26T08:09:30;20.93;;;11.40;;
64932;SDS011;51446;53.850;10.662;2024-02-26T08:11:56;16.13;;;9.40;;
64932;SDS011;51446;53.850;10.662;2024-02-26T08:14:21;18.13;;;9.67;;
64932;SDS011;51446;53.850;10.662;2024-02-26T08:16:46;26.23;;;12.63;;
64932;SDS011;51446;53.850;10.662;2024-02-26T08:19:11;17.10;;;9.73;;
64932;SDS011;51446;53.850;10.662;2024-02-26T08:21:39;17.08;;;10.40;;
64932;SDS011;51446;53.850;10.662;2024-02-26T08:24:05;17.43;;;10.53;;
64932;SDS011;51446;53.850;10.662;2024-02-26T08:26:30;17.37;;;10.83;;
64932;SDS011;51446;53.850;10.662;2024-02-26T08:28:55;22.20;;;11.90;;
64932;SDS011;51446;53.850;10.662;2024-02-26T08:31:22;22.30;;;11.00;;
64932;SDS011;51446;53.850;10.662;2024-02-26T08:33:48;18.55;;;10.88;;
64932;SDS011;51446;53.850;10.662;2024-02-26T08:36:13;17.90;;;11.20;;
64932;SDS011;51446;53.850;10.662;2024-02-26T08:38:39;17.80;;;10.70;;
64932;SDS011;51446;53.850;10.662;2024-02-26T08:41:04;20.70;;;11.37;;
64932;SDS011;51446;53.850;10.662;2024-02-26T08:43:29;28.07;;;11.77;;
64932;SDS011;51446;53.850;10.662;2024-02-26T08:45:54;20.80;;;12.20;;
64932;SDS011;51446;53.850;10.662;2024-02-26T08:48:20;36.78;;;14.70;;
64932;SDS011;51446;53.850;10.662;2024-02-26T08:50:46;29.77;;;14.20;;
64932;SDS011;51446;53.850;10.662;2024-02-26T08:53:11;43.13;;;16.03;;
64932;SDS011;51446;53.850;10.662;2024-02-26T08:55:36;36.63;;;17.23;;
64932;SDS011;51446;53.850;10.662;2024-02-26T08:58:02;34.67;;;16.40;;
64932;SDS011;51446;53.850;10.662;2024-02-26T09:00:27;34.73;;;16.10;;
64932;SDS011;51446;53.850;10.662;2024-02-26T09:02:52;36.60;;;16.30;;
64932;SDS011;51446;53.850;10.662;2024-02-26T09:05:18;41.80;;;15.70;;
64932;SDS011;51446;53.850;10.662;2024-02-26T09:07:43;37.17;;;15.73;;
64932;SDS011;51446;53.850;10.662;2024-02-26T09:10:09;36.30;;;15.68;;
64932;SDS011;51446;53.850;10.662;2024-02-26T09:12:35;43.05;;;15.98;;
64932;SDS011;51446;53.850;10.662;2024-02-26T09:15:00;33.07;;;15.13;;
64932;SDS011;51446;53.850;10.662;2024-02-26T09:17:26;48.63;;;16.60;;
64932;SDS011;51446;53.850;10.662;2024-02-26T09:19:51;38.70;;;15.67;;
64932;SDS011;51446;53.850;10.662;2024-02-26T09:22:16;42.10;;;16.83;;
64932;SDS011;51446;53.850;10.662;2024-02-26T09:24:42;41.43;;;16.40;;
64932;SDS011;51446;53.850;10.662;2024-02-26T09:27:07;39.97;;;15.60;;
64932;SDS011;51446;53.850;10.662;2024-02-26T09:29:32;38.23;;;16.23;;
64932;SDS011;51446;53.850;10.662;2024-02-26T09:31:58;41.35;;;16.35;;
64932;SDS011;51446;53.850;10.662;2024-02-26T09:34:23;35.57;;;15.87;;
64932;SDS011;51446;53.850;10.662;2024-02-26T09:36:49;40.20;;;16.20;;
64932;SDS011;51446;53.850;10.662;2024-02-26T09:39:14;43.50;;;17.13;;
64932;SDS011;51446;53.850;10.662;2024-02-26T09:41:45;43.55;;;15.13;;
64932;SDS011;51446;53.850;10.662;2024-02-26T09:44:10;39.10;;;14.83;;
64932;SDS011;51446;53.850;10.662;2024-02-26T09:46:38;36.10;;;16.08;;
64932;SDS011;51446;53.850;10.662;2024-02-26T09:49:03;34.33;;;14.90;;
64932;SDS011;51446;53.850;10.662;2024-02-26T09:51:29;34.17;;;14.55;;
64932;SDS011;51446;53.850;10.662;2024-02-26T09:53:57;38.40;;;15.27;;
64932;SDS011;51446;53.850;10.662;2024-02-26T09:56:25;28.50;;;13.80;;
64932;SDS011;51446;53.850;10.662;2024-02-26T09:58:51;31.15;;;13.95;;
64932;SDS011;51446;53.850;10.662;2024-02-26T10:01:19;27.75;;;13.45;;
64932;SDS011;51446;53.850;10.662;2024-02-26T10:03:47;27.73;;;13.80;;
64932;SDS011;51446;53.850;10.662;2024-02-26T10:06:20;25.42;;;12.68;;
64932;SDS011;51446;53.850;10.662;2024-02-26T10:08:45;25.77;;;12.27;;
64932;SDS011;51446;53.850;10.662;2024-02-26T10:11:13;27.02;;;12.82;;
64932;SDS011;51446;53.850;10.662;2024-02-26T10:13:39;27.42;;;13.10;;
64932;SDS011;51446;53.850;10.662;2024-02-26T10:16:04;29.37;;;12.80;;
64932;SDS011;51446;53.850;10.662;2024-02-26T10:21:15;26.35;;;12.27;;
64932;SDS011;51446;53.850;10.662;2024-02-26T10:23:43;29.17;;;13.20;;
64932;SDS011;51446;53.850;10.662;2024-02-26T10:26:10;27.70;;;14.13;;
64932;SDS011;51446;53.850;10.662;2024-02-26T10:28:37;27.52;;;14.10;;
64932;SDS011;51446;53.850;10.662;2024-02-26T10:31:02;26.97;;;13.00;;
64932;SDS011;51446;53.850;10.662;2024-02-26T10:33:28;28.23;;;13.57;;
64932;SDS011;51446;53.850;10.662;2024-02-26T10:35:53;26.02;;;12.10;;
64932;SDS011;51446;53.850;10.662;2024-02-26T10:38:19;26.83;;;12.80;;
64932;SDS011;51446;53.850;10.662;2024-02-26T10:40:45;25.92;;;12.77;;
64932;SDS011;51446;53.850;10.662;2024-02-26T10:43:11;27.03;;;13.27;;
64932;SDS011;51446;53.850;10.662;2024-02-26T10:45:38;24.50;;;12.80;;
64932;SDS011;51446;53.850;10.662;2024-02-26T10:48:09;26.30;;;13.23;;
64932;SDS011;51446;53.850;10.662;2024-02-26T10:50:35;24.20;;;11.38;;
64932;SDS011;51446;53.850;10.662;2024-02-26T10:53:00;23.70;;;11.73;;
64932;SDS011;51446;53.850;10.662;2024-02-26T10:55:26;24.70;;;12.70;;
64932;SDS011;51446;53.850;10.662;2024-02-26T10:57:52;20.85;;;11.23;;
64932;SDS011;51446;53.850;10.662;2024-02-26T11:00:18;21.83;;;11.80;;
64932;SDS011;51446;53.850;10.662;2024-02-26T11:02:44;20.83;;;10.80;;
64932;SDS011;51446;53.850;10.662;2024-02-26T11:05:11;19.52;;;11.68;;
64932;SDS011;51446;53.850;10.662;2024-02-26T11:07:37;18.05;;;10.38;;
64932;SDS011;51446;53.850;10.662;2024-02-26T11:10:04;19.48;;;10.98;;
64932;SDS011;51446;53.850;10.662;2024-02-26T11:12:31;23.37;;;11.73;;
64932;SDS011;51446;53.850;10.662;2024-02-26T11:14:58;19.98;;;10.77;;
64932;SDS011;51446;53.850;10.662;2024-02-26T11:17:26;24.67;;;11.75;;
64932;SDS011;51446;53.850;10.662;2024-02-26T11:19:56;22.90;;;11.60;;
64932;SDS011;51446;53.850;10.662;2024-02-26T11:22:24;19.60;;;10.70;;
64932;SDS011;51446;53.850;10.662;2024-02-26T11:24:53;19.40;;;10.60;;
64932;SDS011;51446;53.850;10.662;2024-02-26T11:27:23;22.27;;;11.95;;
64932;SDS011;51446;53.850;10.662;2024-02-26T11:29:55;23.98;;;12.27;;
64932;SDS011;51446;53.850;10.662;2024-02-26T11:32:26;25.05;;;12.90;;
64932;SDS011;51446;53.850;10.662;2024-02-26T11:34:53;28.00;;;14.27;;
64932;SDS011;51446;53.850;10.662;2024-02-26T11:37:19;25.30;;;12.80;;
64932;SDS011;51446;53.850;10.662;2024-02-26T11:39:45;25.45;;;13.52;;
64932;SDS011;51446;53.850;10.662;2024-02-26T11:42:13;27.90;;;14.25;;
64932;SDS011;51446;53.850;10.662;2024-02-26T11:44:40;24.85;;;13.60;;
64932;SDS011;51446;53.850;10.662;2024-02-26T11:47:13;28.55;;;14.48;;
64932;SDS011;51446;53.850;10.662;2024-02-26T11:49:42;27.88;;;14.05;;
64932;SDS011;51446;53.850;10.662;2024-02-26T11:52:08;29.67;;;14.00;;
64932;SDS011;51446;53.850;10.662;2024-02-26T11:54:38;30.15;;;15.20;;
64932;SDS011;51446;53.850;10.662;2024-02-26T11:57:03;28.23;;;14.17;;
64932;SDS011;51446;53.850;10.662;2024-02-26T11:59:39;31.80;;;14.55;;
64932;SDS011;51446;53.850;10.662;2024-02-26T12:02:06;27.10;;;14.27;;
64932;SDS011;51446;53.850;10.662;2024-02-26T12:04:32;29.57;;;14.97;;
64932;SDS011;51446;53.850;10.662;2024-02-26T12:06:58;29.70;;;14.25;;
64932;SDS011;51446;53.850;10.662;2024-02-26T12:09:30;31.70;;;14.02;;
64932;SDS011;51446;53.850;10.662;2024-02-26T12:12:06;28.65;;;14.50;;
64932;SDS011;51446;53.850;10.662;2024-02-26T12:14:34;26.48;;;13.85;;
64932;SDS011;51446;53.850;10.662;2024-02-26T12:17:03;26.08;;;13.55;;
64932;SDS011;51446;53.850;10.662;2024-02-26T12:19:32;27.20;;;14.63;;
64932;SDS011;51446;53.850;10.662;2024-02-26T12:21:57;28.67;;;13.88;;
64932;SDS011;51446;53.850;10.662;2024-02-26T12:24:22;29.57;;;14.50;;
64932;SDS011;51446;53.850;10.662;2024-02-26T12:26:48;30.47;;;13.70;;
64932;SDS011;51446;53.850;10.662;2024-02-26T12:29:13;26.53;;;13.63;;
64932;SDS011;51446;53.850;10.662;2024-02-26T12:31:39;28.83;;;13.35;;
64932;SDS011;51446;53.850;10.662;2024-02-26T12:34:05;28.80;;;13.10;;
64932;SDS011;51446;53.850;10.662;2024-02-26T12:36:31;26.30;;;13.68;;
64932;SDS011;51446;53.850;10.662;2024-02-26T12:38:59;27.45;;;13.43;;
64932;SDS011;51446;53.850;10.662;2024-02-26T12:41:25;29.80;;;14.07;;
64932;SDS011;51446;53.850;10.662;2024-02-26T12:43:52;30.25;;;13.85;;
64932;SDS011;51446;53.850;10.662;2024-02-26T12:46:18;32.10;;;14.97;;
64932;SDS011;51446;53.850;10.662;2024-02-26T12:48:43;32.55;;;14.82;;
64932;SDS011;51446;53.850;10.662;2024-02-26T12:51:10;36.03;;;16.27;;
64932;SDS011;51446;53.850;10.662;2024-02-26T12:53:37;35.78;;;15.63;;
64932;SDS011;51446;53.850;10.662;2024-02-26T12:56:03;31.88;;;15.27;;
64932;SDS011;51446;53.850;10.662;2024-02-26T12:58:30;28.92;;;14.65;;
64932;SDS011;51446;53.850;10.662;2024-02-26T13:00:56;29.63;;;15.00;;
64932;SDS011;51446;53.850;10.662;2024-02-26T13:03:23;28.30;;;14.60;;
64932;SDS011;51446;53.850;10.662;2024-02-26T13:05:49;33.63;;;15.27;;
64932;SDS011;51446;53.850;10.662;2024-02-26T13:08:18;27.77;;;14.85;;
64932;SDS011;51446;53.850;10.662;2024-02-26T13:10:47;29.67;;;14.47;;
64932;SDS011;51446;53.850;10.662;2024-02-26T13:13:16;32.00;;;14.50;;
64932;SDS011;51446;53.850;10.662;2024-02-26T13:15:42;29.13;;;14.52;;
64932;SDS011;51446;53.850;10.662;2024-02-26T13:18:10;29.02;;;13.35;;
64932;SDS011;51446;53.850;10.662;2024-02-26T13:20:37;28.00;;;13.90;;
64932;SDS011;51446;53.850;10.662;2024-02-26T13:23:03;27.60;;;12.33;;
64932;SDS011;51446;53.850;10.662;2024-02-26T13:25:32;26.35;;;13.27;;
64932;SDS011;51446;53.850;10.662;2024-02-26T13:28:08;23.53;;;12.50;;
64932;SDS011;51446;53.850;10.662;2024-02-26T13:30:54;24.63;;;13.10;;
64932;SDS011;51446;53.850;10.662;2024-02-26T13:33:23;22.45;;;12.10;;
64932;SDS011;51446;53.850;10.662;2024-02-26T13:35:49;26.20;;;13.23;;
64932;SDS011;51446;53.850;10.662;2024-02-26T13:38:15;24.42;;;12.50;;
64932;SDS011;51446;53.850;10.662;2024-02-26T13:40:40;24.63;;;12.40;;
64932;SDS011;51446;53.850;10.662;2024-02-26T13:43:05;23.00;;;12.53;;
64932;SDS011;51446;53.850;10.662;2024-02-26T13:45:36;23.30;;;12.50;;
64932;SDS011;51446;53.850;10.662;2024-02-26T13:48:06;24.02;;;11.80;;
64932;SDS011;51446;53.850;10.662;2024-02-26T13:50:32;20.47;;;11.80;;
64932;SDS011;51446;53.850;10.662;2024-02-26T13:52:58;19.55;;;11.43;;
64932;SDS011;51446;53.850;10.662;2024-02-26T13:55:25;21.75;;;12.30;;
64932;SDS011;51446;53.850;10.662;2024-02-26T13:57:53;20.58;;;12.43;;
64932;SDS011;51446;53.850;10.662;2024-02-26T14:00:19;24.02;;;12.45;;
64932;SDS011;51446;53.850;10.662;2024-02-26T14:02:44;20.77;;;11.77;;
64932;SDS011;51446;53.850;10.662;2024-02-26T14:05:10;22.33;;;11.50;;
64932;SDS011;51446;53.850;10.662;2024-02-26T14:07:35;21.67;;;11.17;;
64932;SDS011;51446;53.850;10.662;2024-02-26T14:10:00;22.27;;;13.03;;